Time;durP1;ratioP1;P1;durP2;ratioP2;P2;SDS_P1;SDS_P2;PMS_P1;PMS_P2;Temp;Humidity;BMP_temperature;BMP_pressure;BME280_temperature;BME280_humidity;BME280_pressure;Samples;Min_cycle;Max_cycle;Signal;HPM_P1;HPM_P2
2021/01/12 00:02:21;;;;;;;6.75;6.05;;;23.70;26.30;;;;;;5031272;28;20494;-59
2021/01/12 00:04:48;;;;;;;6.57;5.80;;;23.70;26.30;;;;;;5030423;28;20444;-59
2021/01/12 00:07:14;;;;;;;7.07;6.38;;;23.70;26.40;;;;;;5031490;28;20887;-59
2021/01/12 00:09:40;;;;;;;7.25;6.10;;;23.60;26.40;;;;;;5031086;28;20764;-59
2021/01/12 00:12:09;;;;;;;6.53;5.82;;;23.60;26.40;;;;;;5029754;28;20430;-59
2021/01/12 00:14:35;;;;;;;6.70;6.00;;;23.60;26.40;;;;;;5031444;28;20402;-59
2021/01/12 00:17:04;;;;;;;6.63;5.93;;;23.50;26.40;;;;;;5031455;28;20748;-59
2021/01/12 00:19:31;;;;;;;6.20;5.60;;;23.50;26.30;;;;;;5031421;28;20402;-60
2021/01/12 00:21:57;;;;;;;6.88;6.10;;;23.50;26.30;;;;;;5030835;28;20508;-59
2021/01/12 00:24:23;;;;;;;6.60;6.00;;;23.40;26.30;;;;;;5031423;28;20386;-59
2021/01/12 00:26:49;;;;;;;6.78;6.07;;;23.40;26.30;;;;;;5031290;28;20532;-59
2021/01/12 00:29:15;;;;;;;7.00;5.97;;;23.40;26.30;;;;;;5031139;28;20428;-59
2021/01/12 00:31:45;;;;;;;6.57;5.93;;;23.40;26.30;;;;;;5031254;28;20391;-59
2021/01/12 00:34:11;;;;;;;6.82;6.10;;;23.30;26.30;;;;;;5030546;28;20422;-59
2021/01/12 00:36:51;;;;;;;7.00;6.10;;;23.30;26.30;;;;;;5021557;28;20407;-59
2021/01/12 00:39:19;;;;;;;6.93;6.22;;;23.30;26.30;;;;;;5031122;28;20729;-59
2021/01/12 00:41:57;;;;;;;6.65;5.95;;;23.20;26.20;;;;;;5030794;28;20426;-58
2021/01/12 00:44:24;;;;;;;6.82;6.13;;;23.20;26.20;;;;;;5031153;28;20474;-59
2021/01/12 00:46:50;;;;;;;6.57;5.87;;;23.20;26.30;;;;;;5031463;28;20402;-60
2021/01/12 00:49:18;;;;;;;6.53;5.90;;;23.20;26.30;;;;;;5034387;28;20403;-59
2021/01/12 00:51:44;;;;;;;6.25;5.60;;;23.10;26.30;;;;;;5034705;28;20401;-60
2021/01/12 00:54:16;;;;;;;6.78;5.88;;;23.10;26.70;;;;;;5034031;28;20387;-61
2021/01/12 00:56:42;;;;;;;6.70;6.00;;;23.00;26.20;;;;;;5031904;28;20489;-70
2021/01/12 00:59:08;;;;;;;6.38;5.78;;;23.00;26.30;;;;;;5034270;28;20391;-59
2021/01/12 01:01:34;;;;;;;6.32;5.72;;;23.00;26.30;;;;;;5034688;28;20553;-60
2021/01/12 01:04:00;;;;;;;6.63;5.93;;;23.00;26.30;;;;;;5033965;28;20808;-59
2021/01/12 01:06:26;;;;;;;6.25;5.65;;;23.00;26.30;;;;;;5034853;28;20474;-59
2021/01/12 01:08:52;;;;;;;6.50;5.90;;;22.90;26.30;;;;;;5034650;28;20906;-59
2021/01/12 01:11:18;;;;;;;6.40;5.80;;;22.90;26.30;;;;;;5034682;28;20879;-59
2021/01/12 01:13:45;;;;;;;6.40;5.80;;;22.90;26.20;;;;;;5034557;28;20415;-59
2021/01/12 01:16:10;;;;;;;6.55;5.93;;;22.90;26.30;;;;;;5034166;28;20383;-59
2021/01/12 01:18:37;;;;;;;6.30;5.70;;;22.80;26.20;;;;;;5034465;28;20759;-59
2021/01/12 01:21:03;;;;;;;6.80;6.00;;;22.80;26.90;;;;;;5034364;28;20469;-59
2021/01/12 01:23:29;;;;;;;6.55;5.85;;;22.80;26.30;;;;;;5034382;28;20391;-59
2021/01/12 01:25:54;;;;;;;6.13;5.53;;;22.80;26.20;;;;;;5033731;28;20911;-59
2021/01/12 01:28:21;;;;;;;6.38;5.50;;;22.70;26.30;;;;;;5033943;28;20379;-59
2021/01/12 01:30:48;;;;;;;5.63;5.03;;;22.70;26.90;;;;;;5033635;28;20494;-59
2021/01/12 01:33:14;;;;;;;6.20;5.55;;;22.70;26.80;;;;;;5033622;28;20414;-59
2021/01/12 01:35:41;;;;;;;5.93;5.33;;;22.60;26.80;;;;;;5034209;28;20403;-59
2021/01/12 01:38:07;;;;;;;7.07;6.07;;;22.60;26.80;;;;;;5033604;28;20392;-59
2021/01/12 01:40:32;;;;;;;6.57;5.73;;;22.60;26.50;;;;;;5033968;28;20426;-59
2021/01/12 01:42:58;;;;;;;6.17;5.57;;;22.60;27.00;;;;;;5034145;28;20828;-59
2021/01/12 01:45:24;;;;;;;6.15;5.55;;;22.50;27.10;;;;;;5034016;28;20764;-59
2021/01/12 01:47:50;;;;;;;5.63;5.03;;;22.50;27.10;;;;;;5033862;28;20863;-59
2021/01/12 01:50:18;;;;;;;5.97;5.38;;;22.40;26.80;;;;;;5033493;28;20863;-59
2021/01/12 01:52:48;;;;;;;6.15;5.55;;;22.40;26.70;;;;;;5033906;28;20864;-59
2021/01/12 01:55:15;;;;;;;6.00;5.40;;;22.40;26.60;;;;;;5033935;28;20478;-59
2021/01/12 01:57:41;;;;;;;6.38;5.78;;;22.30;26.50;;;;;;5033708;28;20391;-59
2021/01/12 02:00:08;;;;;;;6.55;5.72;;;22.30;26.60;;;;;;5031787;28;20749;-59
2021/01/12 02:02:59;;;;;;;6.05;5.45;;;22.30;26.50;;;;;;5033256;28;20403;-59
2021/01/12 02:05:33;;;;;;;6.10;5.50;;;22.30;26.50;;;;;;5033314;28;20875;-59
2021/01/12 02:08:05;;;;;;;6.28;5.65;;;22.30;26.60;;;;;;5033349;28;20402;-59
2021/01/12 02:10:37;;;;;;;5.93;5.32;;;22.20;26.40;;;;;;5033697;28;20430;-59
2021/01/12 02:13:05;;;;;;;6.00;5.15;;;22.20;26.80;;;;;;5033630;28;20457;-59
2021/01/12 02:15:32;;;;;;;6.30;5.50;;;22.20;26.50;;;;;;5033218;28;20448;-59
2021/01/12 02:17:58;;;;;;;5.90;5.30;;;22.20;26.40;;;;;;5032955;28;20419;-58
2021/01/12 02:20:27;;;;;;;5.68;5.15;;;22.20;26.40;;;;;;5033110;28;20413;-59
2021/01/12 02:23:17;;;;;;;6.00;5.40;;;22.10;26.30;;;;;;5033209;28;20387;-59
2021/01/12 02:25:45;;;;;;;5.47;4.97;;;22.10;26.40;;;;;;5033179;28;20383;-59
2021/01/12 02:28:17;;;;;;;5.43;4.90;;;22.10;26.30;;;;;;5032913;28;20390;-59
2021/01/12 02:30:43;;;;;;;5.70;5.10;;;22.10;26.30;;;;;;5032926;28;20478;-59
2021/01/12 02:33:09;;;;;;;6.00;5.40;;;22.00;26.50;;;;;;5033043;28;20578;-60
2021/01/12 02:35:44;;;;;;;5.70;5.13;;;22.00;26.30;;;;;;5032694;28;20486;-59
2021/01/12 02:38:10;;;;;;;6.00;5.40;;;22.00;26.30;;;;;;5032598;28;20391;-59
2021/01/12 02:40:36;;;;;;;6.18;5.57;;;21.90;26.40;;;;;;5032895;28;20419;-59
2021/01/12 02:43:02;;;;;;;5.57;4.97;;;21.90;26.40;;;;;;5033018;28;20379;-59
2021/01/12 02:45:28;;;;;;;6.10;5.50;;;21.90;26.30;;;;;;5032700;28;20810;-59
2021/01/12 02:47:53;;;;;;;6.43;5.60;;;21.90;26.30;;;;;;5032874;28;20401;-59
2021/01/12 02:50:19;;;;;;;6.43;5.53;;;21.90;26.30;;;;;;5032117;28;20394;-59
2021/01/12 02:52:45;;;;;;;5.85;5.25;;;21.80;26.30;;;;;;5032653;28;20414;-59
2021/01/12 02:55:13;;;;;;;5.97;5.38;;;21.80;26.30;;;;;;5032674;28;20383;-59
2021/01/12 02:57:39;;;;;;;5.45;4.95;;;21.80;26.30;;;;;;5032343;28;21002;-59
2021/01/12 03:00:13;;;;;;;6.10;5.50;;;21.80;26.30;;;;;;5032135;28;20490;-59
2021/01/12 03:02:39;;;;;;;5.78;5.18;;;21.80;26.30;;;;;;5032515;28;20395;-59
2021/01/12 03:05:06;;;;;;;6.10;5.50;;;21.70;26.40;;;;;;5032247;28;20395;-59
2021/01/12 03:07:32;;;;;;;6.10;5.45;;;21.70;26.30;;;;;;5032259;28;20407;-58
2021/01/12 03:09:58;;;;;;;5.90;5.30;;;21.70;26.30;;;;;;5032013;28;20383;-59
2021/01/12 03:12:24;;;;;;;5.80;5.13;;;21.60;26.30;;;;;;5031887;28;20423;-59
2021/01/12 03:14:50;;;;;;;5.87;5.20;;;21.60;26.30;;;;;;5032191;28;20856;-59
2021/01/12 03:17:17;;;;;;;6.18;5.20;;;21.60;26.30;;;;;;5032147;28;20399;-59
2021/01/12 03:19:42;;;;;;;6.03;5.40;;;21.60;26.40;;;;;;5031893;28;20483;-60
2021/01/12 03:22:09;;;;;;;6.18;5.40;;;21.60;26.30;;;;;;5031269;28;20498;-59
2021/01/12 03:24:35;;;;;;;5.82;5.22;;;21.50;26.30;;;;;;5031901;28;20387;-61
2021/01/12 03:27:01;;;;;;;5.97;5.38;;;21.50;26.30;;;;;;5031232;28;20411;-59
2021/01/12 03:29:26;;;;;;;5.67;5.07;;;21.50;26.30;;;;;;5032205;28;20383;-59
2021/01/12 03:31:52;;;;;;;5.60;5.00;;;21.50;26.30;;;;;;5031691;28;20425;-59
2021/01/12 03:34:18;;;;;;;5.10;4.47;;;21.50;26.30;;;;;;5031306;28;20415;-59
2021/01/12 03:36:43;;;;;;;5.82;5.22;;;21.40;26.30;;;;;;5031536;28;20415;-59
2021/01/12 03:39:09;;;;;;;5.30;4.78;;;21.40;26.30;;;;;;5031755;28;20414;-59
2021/01/12 03:41:35;;;;;;;5.20;4.70;;;21.30;26.20;;;;;;5031674;28;20423;-59
2021/01/12 03:44:01;;;;;;;5.47;4.70;;;21.40;26.30;;;;;;5031392;28;20422;-59
2021/01/12 03:46:27;;;;;;;5.20;4.70;;;21.30;26.20;;;;;;5031256;28;20909;-59
2021/01/12 03:48:53;;;;;;;4.90;4.40;;;21.30;26.30;;;;;;5031692;28;20392;-58
2021/01/12 03:51:20;;;;;;;4.70;4.30;;;21.30;26.20;;;;;;5031548;28;20396;-59
2021/01/12 03:53:46;;;;;;;4.68;4.20;;;21.30;26.40;;;;;;5031639;28;20387;-59
2021/01/12 03:56:15;;;;;;;5.05;4.30;;;21.30;26.30;;;;;;5030369;28;20817;-59
2021/01/12 03:58:41;;;;;;;4.70;4.18;;;21.20;26.30;;;;;;5031536;28;20748;-59
2021/01/12 04:01:07;;;;;;;4.65;4.15;;;21.20;26.30;;;;;;5031428;28;20414;-59
2021/01/12 04:03:33;;;;;;;4.68;4.05;;;21.20;26.20;;;;;;5031354;28;20388;-59
2021/01/12 04:06:03;;;;;;;4.80;4.10;;;21.20;26.30;;;;;;5031286;28;20414;-59
2021/01/12 04:08:29;;;;;;;4.40;4.00;;;21.10;26.10;;;;;;5031202;28;20418;-59
2021/01/12 04:10:55;;;;;;;4.95;3.88;;;21.10;26.40;;;;;;5031114;28;20430;-59
2021/01/12 04:13:21;;;;;;;4.10;3.70;;;21.10;26.90;;;;;;5031482;28;20395;-59
2021/01/12 04:15:47;;;;;;;4.00;3.60;;;21.20;26.90;;;;;;5030944;28;20407;-59
2021/01/12 04:18:13;;;;;;;4.30;3.67;;;21.30;27.30;;;;;;5030869;28;20417;-59
2021/01/12 04:20:38;;;;;;;4.22;3.53;;;21.40;27.20;;;;;;5031198;28;20406;-59
2021/01/12 04:23:04;;;;;;;5.57;3.87;;;21.40;27.30;;;;;;5032373;28;20456;-59
2021/01/12 04:25:30;;;;;;;3.97;3.38;;;21.50;27.30;;;;;;5034948;28;20395;-59
2021/01/12 04:27:55;;;;;;;5.15;3.25;;;21.50;27.70;;;;;;5033977;28;20456;-59
2021/01/12 04:30:21;;;;;;;3.80;3.10;;;21.60;28.00;;;;;;5034241;28;20878;-59
2021/01/12 04:32:48;;;;;;;5.07;3.22;;;21.60;27.60;;;;;;5034916;28;20492;-59
2021/01/12 04:35:13;;;;;;;4.45;3.00;;;21.60;28.10;;;;;;5034326;28;20431;-60
2021/01/12 04:37:39;;;;;;;4.07;3.20;;;21.70;28.40;;;;;;5034948;28;20433;-60
2021/01/12 04:40:05;;;;;;;6.27;3.00;;;21.70;28.40;;;;;;5034620;28;20393;-58
2021/01/12 04:42:32;;;;;;;3.23;2.90;;;21.80;28.50;;;;;;5035083;28;20420;-58
2021/01/12 04:44:59;;;;;;;5.10;3.03;;;21.80;28.90;;;;;;5034440;28;20407;-58
2021/01/12 04:47:25;;;;;;;5.63;3.10;;;21.80;28.80;;;;;;5033928;28;20429;-58
2021/01/12 04:49:51;;;;;;;6.00;2.95;;;21.80;29.30;;;;;;5034744;28;20438;-58
2021/01/12 04:52:16;;;;;;;5.63;2.90;;;21.80;28.70;;;;;;5034228;28;20399;-59
2021/01/12 04:54:42;;;;;;;4.97;2.80;;;21.90;29.40;;;;;;5033405;28;20478;-58
2021/01/12 04:57:13;;;;;;;3.80;2.90;;;21.90;29.30;;;;;;5034598;28;20485;-58
2021/01/12 04:59:39;;;;;;;4.70;2.90;;;21.90;28.90;;;;;;5033488;28;20449;-58
2021/01/12 05:02:07;;;;;;;4.43;2.80;;;21.90;28.30;;;;;;5034419;28;20414;-59
2021/01/12 05:04:33;;;;;;;6.50;3.10;;;21.90;28.10;;;;;;5033233;28;20394;-58
2021/01/12 05:06:59;;;;;;;4.20;2.67;;;21.80;27.90;;;;;;5033976;28;20461;-58
2021/01/12 05:09:27;;;;;;;6.40;3.00;;;21.80;28.00;;;;;;5034613;28;20391;-59
2021/01/12 05:11:57;;;;;;;6.05;2.63;;;21.80;27.90;;;;;;5034548;28;20430;-58
2021/01/12 05:14:25;;;;;;;5.22;2.83;;;21.80;27.90;;;;;;5034196;28;20383;-58
2021/01/12 05:16:53;;;;;;;4.15;2.70;;;21.80;28.00;;;;;;5034056;28;20403;-58
2021/01/12 05:19:28;;;;;;;5.88;2.90;;;21.80;28.00;;;;;;5034637;28;20390;-58
2021/01/12 05:21:59;;;;;;;6.00;2.80;;;21.80;27.80;;;;;;5034276;28;20489;-58
2021/01/12 05:24:25;;;;;;;4.03;2.70;;;21.80;27.80;;;;;;5033587;28;20395;-58
2021/01/12 05:26:51;;;;;;;6.18;2.78;;;21.80;27.70;;;;;;5034186;28;20403;-58
2021/01/12 05:29:16;;;;;;;4.30;2.60;;;21.80;27.60;;;;;;5034452;28;20887;-58
2021/01/12 05:31:46;;;;;;;4.45;2.97;;;21.80;27.60;;;;;;5034103;28;20391;-58
2021/01/12 05:34:13;;;;;;;4.23;2.80;;;21.80;27.50;;;;;;5033209;28;20448;-58
2021/01/12 05:36:49;;;;;;;3.88;2.72;;;21.80;27.50;;;;;;5034160;28;20482;-58
2021/01/12 05:39:17;;;;;;;4.43;2.60;;;21.80;27.40;;;;;;5032783;28;20482;-58
2021/01/12 05:41:48;;;;;;;4.63;2.80;;;21.80;27.40;;;;;;5033989;28;20415;-58
2021/01/12 05:44:18;;;;;;;5.32;2.95;;;21.80;27.30;;;;;;5033424;28;20490;-58
2021/01/12 05:46:46;;;;;;;3.30;2.47;;;21.80;27.20;;;;;;5033864;28;20394;-58
2021/01/12 05:49:12;;;;;;;3.13;2.50;;;21.80;27.20;;;;;;5033762;28;20486;-58
2021/01/12 05:51:46;;;;;;;5.38;2.78;;;21.80;27.20;;;;;;5034006;28;20409;-58
2021/01/12 05:54:27;;;;;;;3.42;2.50;;;21.80;27.10;;;;;;5033416;28;20395;-58
2021/01/12 05:57:01;;;;;;;3.47;2.72;;;21.70;27.00;;;;;;5033641;28;20418;-58
2021/01/12 05:59:31;;;;;;;3.08;2.60;;;21.70;27.00;;;;;;5033857;28;20391;-58
2021/01/12 06:02:04;;;;;;;3.85;2.40;;;21.70;27.00;;;;;;5033573;28;20434;-58
2021/01/12 06:04:33;;;;;;;3.63;2.70;;;21.70;26.90;;;;;;5032953;28;20399;-58
2021/01/12 06:07:00;;;;;;;3.58;2.50;;;21.80;27.00;;;;;;5033730;28;20403;-58
2021/01/12 06:09:25;;;;;;;3.47;2.50;;;21.70;27.00;;;;;;5032430;28;20387;-58
2021/01/12 06:11:54;;;;;;;3.93;2.50;;;21.70;26.90;;;;;;5033148;28;20403;-58
2021/01/12 06:14:24;;;;;;;3.08;2.50;;;21.70;26.90;;;;;;5032862;28;20403;-58
2021/01/12 06:16:51;;;;;;;3.60;2.40;;;21.70;26.80;;;;;;5033470;28;20814;-58
2021/01/12 06:19:20;;;;;;;3.08;2.60;;;21.70;26.90;;;;;;5033493;28;20417;-58
2021/01/12 06:21:54;;;;;;;2.92;2.30;;;21.70;26.70;;;;;;5030707;28;20990;-58
2021/01/12 06:24:35;;;;;;;3.25;2.42;;;21.60;26.60;;;;;;5031946;28;20395;-58
2021/01/12 06:27:11;;;;;;;3.08;2.30;;;21.60;26.80;;;;;;5032586;28;20473;-58
2021/01/12 06:29:39;;;;;;;3.35;2.40;;;21.60;26.60;;;;;;5031333;28;20417;-58
2021/01/12 06:32:05;;;;;;;2.70;2.20;;;21.60;26.60;;;;;;5032482;28;20816;-58
2021/01/12 06:34:32;;;;;;;2.80;2.33;;;21.60;26.60;;;;;;5031434;28;20498;-58
2021/01/12 06:36:59;;;;;;;2.60;2.22;;;21.60;26.50;;;;;;5032281;28;20747;-58
2021/01/12 06:39:41;;;;;;;3.20;2.10;;;21.60;26.50;;;;;;5032303;28;20439;-58
2021/01/12 06:42:09;;;;;;;3.15;2.30;;;21.60;26.50;;;;;;5033081;28;20573;-57
2021/01/12 06:44:36;;;;;;;2.33;2.03;;;21.60;26.60;;;;;;5032137;28;20383;-58
2021/01/12 06:47:05;;;;;;;3.43;2.30;;;21.50;26.50;;;;;;5032394;28;20470;-58
2021/01/12 06:49:31;;;;;;;2.65;2.20;;;21.50;26.50;;;;;;5032732;28;20391;-58
2021/01/12 06:52:05;;;;;;;2.53;2.30;;;21.60;26.60;;;;;;5032695;28;20390;-58
2021/01/12 06:54:34;;;;;;;3.00;2.20;;;21.50;26.50;;;;;;5032049;28;20424;-59
2021/01/12 06:57:05;;;;;;;2.58;2.15;;;21.60;26.50;;;;;;5031419;28;20875;-58
2021/01/12 06:59:35;;;;;;;3.70;2.30;;;21.60;26.50;;;;;;5032620;28;20787;-58
2021/01/12 07:02:08;;;;;;;3.40;2.55;;;21.50;27.00;;;;;;5032345;28;20502;-58
2021/01/12 07:04:35;;;;;;;2.83;2.30;;;21.50;26.40;;;;;;5031991;28;20394;-58
2021/01/12 07:07:01;;;;;;;2.70;2.38;;;21.50;26.40;;;;;;5032254;28;20434;-58
2021/01/12 07:09:28;;;;;;;2.72;2.10;;;21.50;26.50;;;;;;5031947;28;20482;-58
2021/01/12 07:12:08;;;;;;;2.58;2.08;;;21.50;26.40;;;;;;5032454;28;20391;-58
2021/01/12 07:14:50;;;;;;;2.85;2.38;;;21.50;26.40;;;;;;5031747;28;20462;-59
2021/01/12 07:17:23;;;;;;;2.63;2.13;;;21.50;26.40;;;;;;5032050;28;20403;-58
2021/01/12 07:19:49;;;;;;;2.90;2.30;;;21.50;26.80;;;;;;5031569;28;20407;-59
2021/01/12 07:22:18;;;;;;;2.72;2.15;;;21.50;26.40;;;;;;5018957;28;20450;-58
2021/01/12 07:24:45;;;;;;;2.65;2.13;;;21.50;26.30;;;;;;5031054;28;20468;-58
2021/01/12 07:27:17;;;;;;;2.78;2.30;;;21.50;26.20;;;;;;5046869;28;20912;-58
2021/01/12 07:29:50;;;;;;;2.90;2.20;;;21.40;26.20;;;;;;5047206;28;20403;-58
2021/01/12 07:32:25;;;;;;;3.03;2.20;;;21.50;26.30;;;;;;5031584;28;20413;-58
2021/01/12 07:34:54;;;;;;;2.67;2.22;;;21.50;26.30;;;;;;5031880;28;20391;-58
2021/01/12 07:37:27;;;;;;;2.97;2.30;;;21.50;26.30;;;;;;5028915;28;20403;-58
2021/01/12 07:39:54;;;;;;;2.55;2.20;;;21.50;26.40;;;;;;5030120;28;20403;-58
2021/01/12 07:42:20;;;;;;;2.80;2.20;;;21.50;26.30;;;;;;5030977;28;20419;-59
2021/01/12 07:44:45;;;;;;;2.17;1.90;;;21.50;26.30;;;;;;5031639;28;20797;-58
2021/01/12 07:47:13;;;;;;;2.90;2.17;;;21.40;26.30;;;;;;5031786;28;20407;-58
2021/01/12 07:49:39;;;;;;;2.95;2.28;;;21.50;26.20;;;;;;5031543;28;20474;-58
2021/01/12 07:52:05;;;;;;;2.50;2.03;;;21.40;26.20;;;;;;5031641;28;20528;-58
2021/01/12 07:54:34;;;;;;;2.75;2.30;;;21.40;26.20;;;;;;5031153;28;20391;-60
2021/01/12 07:57:00;;;;;;;2.60;2.20;;;21.40;26.20;;;;;;5031609;28;20395;-60
2021/01/12 07:59:26;;;;;;;3.40;2.35;;;21.40;26.20;;;;;;5030217;28;20949;-60
2021/01/12 08:01:53;;;;;;;3.17;2.60;;;21.40;26.10;;;;;;5031210;28;20761;-60
2021/01/12 08:04:19;;;;;;;3.88;2.50;;;21.40;26.20;;;;;;5031426;28;20387;-60
2021/01/12 08:06:48;;;;;;;3.60;2.77;;;21.40;26.20;;;;;;5031563;28;20415;-61
2021/01/12 08:09:21;;;;;;;2.80;2.25;;;21.40;26.20;;;;;;5031619;28;20390;-61
2021/01/12 08:11:49;;;;;;;2.75;2.40;;;21.40;26.20;;;;;;5031418;28;20395;-58
2021/01/12 08:14:14;;;;;;;3.25;2.38;;;21.40;26.10;;;;;;5029926;28;20398;-58
2021/01/12 08:16:44;;;;;;;4.03;2.67;;;21.40;26.80;;;;;;5031053;28;20403;-58
2021/01/12 08:19:10;;;;;;;3.38;2.58;;;21.40;26.20;;;;;;5031423;28;20465;-58
2021/01/12 08:21:40;;;;;;;3.40;2.70;;;21.40;26.30;;;;;;5031235;28;20845;-58
2021/01/12 08:24:07;;;;;;;2.95;2.47;;;21.40;26.30;;;;;;5031424;28;20387;-59
2021/01/12 08:26:33;;;;;;;3.27;2.57;;;21.40;26.30;;;;;;5030842;28;20395;-58
2021/01/12 08:29:01;;;;;;;3.28;2.60;;;21.40;26.30;;;;;;5031302;28;20741;-77
2021/01/12 08:31:26;;;;;;;3.17;2.40;;;21.40;26.20;;;;;;5029900;28;20391;-59
2021/01/12 08:33:58;;;;;;;3.40;2.73;;;21.30;26.20;;;;;;5030169;28;20765;-59
2021/01/12 08:36:26;;;;;;;3.33;2.63;;;21.30;26.20;;;;;;5029579;28;20395;-59
2021/01/12 08:38:55;;;;;;;3.13;2.40;;;21.30;26.20;;;;;;5029207;28;20387;-59
2021/01/12 08:41:21;;;;;;;3.78;2.80;;;21.30;26.20;;;;;;5029385;28;20415;-59
2021/01/12 08:43:56;;;;;;;3.80;2.80;;;21.30;26.20;;;;;;5027447;28;20391;-59
2021/01/12 08:46:27;;;;;;;3.65;2.78;;;21.30;26.30;;;;;;5030352;28;20407;-60
2021/01/12 08:48:53;;;;;;;4.80;2.90;;;21.30;26.30;;;;;;5031172;28;20383;-60
2021/01/12 08:51:20;;;;;;;4.38;3.00;;;21.30;26.40;;;;;;5031135;28;20398;-59
2021/01/12 08:53:46;;;;;;;5.43;2.83;;;21.30;26.30;;;;;;5030967;28;20752;-59
2021/01/12 08:56:12;;;;;;;4.38;3.00;;;21.30;26.30;;;;;;5031009;28;20391;-59
2021/01/12 08:58:38;;;;;;;4.18;3.10;;;21.40;26.30;;;;;;5029195;28;20390;-59
2021/01/12 09:01:04;;;;;;;4.00;2.75;;;21.40;26.30;;;;;;5030903;28;20545;-59
2021/01/12 09:03:30;;;;;;;3.45;2.80;;;21.40;26.30;;;;;;5030875;28;20384;-61
2021/01/12 09:05:57;;;;;;;3.60;2.90;;;21.40;26.30;;;;;;5029814;28;20478;-59
2021/01/12 09:08:25;;;;;;;3.95;2.90;;;21.40;26.20;;;;;;5031649;28;20394;-60
2021/01/12 09:10:51;;;;;;;4.18;2.75;;;21.40;26.20;;;;;;5034663;28;20378;-59
2021/01/12 09:13:24;;;;;;;4.07;2.88;;;21.40;26.20;;;;;;5034716;28;20486;-78
2021/01/12 09:15:51;;;;;;;3.95;2.80;;;21.40;26.20;;;;;;5032373;28;20399;-59
2021/01/12 09:18:21;;;;;;;4.20;2.80;;;21.40;26.20;;;;;;5034506;28;20398;-65
2021/01/12 09:20:57;;;;;;;4.60;2.80;;;21.40;26.20;;;;;;5034284;28;20532;-59
2021/01/12 09:23:24;;;;;;;4.03;2.83;;;21.40;26.20;;;;;;5034475;28;20391;-59
2021/01/12 09:26:05;;;;;;;4.43;2.95;;;21.40;26.20;;;;;;5034289;28;20390;-59
2021/01/12 09:28:36;;;;;;;4.18;2.90;;;21.30;26.10;;;;;;5046045;28;20396;-61
2021/01/12 09:31:13;;;;;;;4.50;2.78;;;21.30;26.10;;;;;;5033655;28;20391;-60
2021/01/12 09:33:50;;;;;;;3.70;2.80;;;21.30;26.10;;;;;;5033823;28;20407;-59
2021/01/12 09:36:17;;;;;;;3.50;2.70;;;21.30;26.00;;;;;;5034225;28;20379;-59
2021/01/12 09:38:53;;;;;;;3.65;2.88;;;21.30;26.00;;;;;;5033620;28;20939;-64
2021/01/12 09:41:24;;;;;;;3.58;2.50;;;21.30;26.10;;;;;;5033943;28;20446;-59
2021/01/12 09:43:52;;;;;;;3.67;2.70;;;21.30;26.10;;;;;;5034109;28;20383;-59
2021/01/12 09:46:18;;;;;;;3.15;2.85;;;21.30;26.00;;;;;;5034003;28;20402;-59
2021/01/12 09:48:44;;;;;;;3.65;2.70;;;21.20;26.00;;;;;;5033517;28;20876;-59
2021/01/12 09:51:11;;;;;;;4.18;2.88;;;21.30;26.10;;;;;;5033340;28;20398;-59
2021/01/12 09:53:38;;;;;;;3.20;2.40;;;21.30;26.10;;;;;;5033513;28;20395;-59
2021/01/12 09:56:04;;;;;;;3.70;2.78;;;21.30;26.10;;;;;;5033622;28;20391;-59
2021/01/12 09:58:30;;;;;;;3.90;2.60;;;21.30;26.10;;;;;;5032877;28;20384;-59
2021/01/12 10:00:56;;;;;;;3.35;2.58;;;21.30;26.10;;;;;;5033516;28;20930;-59
2021/01/12 10:03:21;;;;;;;3.67;2.60;;;21.30;26.10;;;;;;5033655;28;20451;-59
2021/01/12 10:05:47;;;;;;;3.30;2.47;;;21.20;26.10;;;;;;5033600;28;20399;-59
2021/01/12 10:08:13;;;;;;;3.73;2.70;;;21.30;26.10;;;;;;5033576;28;20383;-59
2021/01/12 10:10:38;;;;;;;4.03;2.50;;;21.30;26.10;;;;;;5033194;28;20388;-64
2021/01/12 10:13:04;;;;;;;3.50;2.50;;;21.20;26.10;;;;;;5033489;28;20398;-59
2021/01/12 10:15:30;;;;;;;3.17;2.42;;;21.20;26.10;;;;;;5033330;28;20747;-59
2021/01/12 10:17:56;;;;;;;3.55;2.45;;;21.20;26.10;;;;;;5033448;28;20395;-65
2021/01/12 10:20:22;;;;;;;3.65;2.42;;;21.20;26.10;;;;;;5032077;28;20798;-59
2021/01/12 10:22:48;;;;;;;3.65;2.35;;;21.20;26.00;;;;;;5033171;28;20398;-63
2021/01/12 10:25:14;;;;;;;2.90;2.37;;;21.30;26.10;;;;;;5033339;28;20388;-59
2021/01/12 10:27:42;;;;;;;2.85;2.20;;;21.20;26.10;;;;;;5033193;28;20414;-59
2021/01/12 10:30:09;;;;;;;3.05;2.47;;;21.30;26.60;;;;;;5033191;28;20794;-59
2021/01/12 10:32:35;;;;;;;3.42;2.58;;;21.20;26.10;;;;;;5032370;28;20466;-59
2021/01/12 10:35:02;;;;;;;2.97;2.40;;;21.30;26.10;;;;;;5033169;28;20889;-59
2021/01/12 10:37:27;;;;;;;3.78;2.70;;;21.20;26.10;;;;;;5033023;28;20478;-60
2021/01/12 10:39:54;;;;;;;3.10;2.40;;;21.30;26.10;;;;;;5032941;28;20503;-59
2021/01/12 10:42:19;;;;;;;3.05;2.28;;;21.20;26.10;;;;;;5032987;28;20455;-59
2021/01/12 10:44:45;;;;;;;3.10;2.40;;;21.20;26.10;;;;;;5032502;28;20504;-59
2021/01/12 10:47:11;;;;;;;3.72;2.30;;;21.20;26.10;;;;;;5033245;28;20963;-59
2021/01/12 10:49:39;;;;;;;3.47;2.33;;;21.20;26.10;;;;;;5032269;28;20411;-59
2021/01/12 10:52:06;;;;;;;2.75;2.35;;;21.30;26.10;;;;;;5032933;28;20383;-59
2021/01/12 10:54:34;;;;;;;2.65;2.33;;;21.20;26.00;;;;;;5032371;28;20387;-59
2021/01/12 10:57:06;;;;;;;2.88;2.13;;;21.20;26.00;;;;;;5032671;28;20398;-59
2021/01/12 10:59:32;;;;;;;3.00;2.20;;;21.20;26.10;;;;;;5030150;28;21372;-59
2021/01/12 11:02:02;;;;;;;2.90;2.20;;;21.20;26.00;;;;;;5031619;28;20423;-59
2021/01/12 11:04:28;;;;;;;3.15;2.45;;;21.20;26.00;;;;;;5031959;28;20795;-59
2021/01/12 11:06:55;;;;;;;2.78;2.20;;;21.20;26.00;;;;;;5047739;28;20457;-59
2021/01/12 11:09:22;;;;;;;3.72;2.17;;;21.20;26.00;;;;;;5032124;28;20395;-59
2021/01/12 11:11:48;;;;;;;3.10;2.28;;;21.20;26.00;;;;;;5032258;28;20406;-59
2021/01/12 11:14:16;;;;;;;3.42;2.20;;;21.20;26.00;;;;;;5032268;28;20478;-59
2021/01/12 11:16:42;;;;;;;3.25;2.17;;;21.20;26.00;;;;;;5031753;28;20427;-59
2021/01/12 11:19:08;;;;;;;2.60;2.03;;;21.20;26.00;;;;;;5032120;28;20879;-59
2021/01/12 11:21:41;;;;;;;3.50;2.30;;;21.10;26.00;;;;;;5031593;28;20509;-59
2021/01/12 11:24:07;;;;;;;3.28;2.15;;;21.10;26.00;;;;;;5031841;28;20387;-59
2021/01/12 11:26:32;;;;;;;3.58;2.30;;;21.10;26.00;;;;;;5031636;28;20438;-59
2021/01/12 11:28:58;;;;;;;2.60;2.10;;;21.10;25.90;;;;;;5032029;28;20395;-59
2021/01/12 11:31:24;;;;;;;3.10;2.40;;;21.10;26.00;;;;;;5032091;28;20391;-59
2021/01/12 11:33:50;;;;;;;3.20;2.30;;;21.10;26.00;;;;;;5031604;28;20464;-59
2021/01/12 11:36:16;;;;;;;2.75;2.08;;;21.10;26.00;;;;;;5032289;28;20887;-60
2021/01/12 11:38:41;;;;;;;3.30;2.27;;;21.10;26.00;;;;;;5031554;28;20391;-59
2021/01/12 11:41:10;;;;;;;2.75;2.05;;;21.10;26.00;;;;;;5031769;28;20960;-59
2021/01/12 11:43:37;;;;;;;3.05;2.22;;;21.10;26.00;;;;;;5031796;28;20472;-59
2021/01/12 11:46:03;;;;;;;2.75;2.10;;;21.10;25.90;;;;;;5031856;28;20432;-62
2021/01/12 11:48:29;;;;;;;2.80;2.10;;;21.10;26.00;;;;;;5031555;28;20391;-59
2021/01/12 11:50:55;;;;;;;3.05;1.98;;;21.10;26.00;;;;;;5031491;28;20736;-59
2021/01/12 11:53:20;;;;;;;3.08;2.08;;;21.00;26.00;;;;;;5031767;28;20414;-59
2021/01/12 11:55:46;;;;;;;2.77;1.90;;;21.10;26.10;;;;;;5031610;28;20400;-59
2021/01/12 11:58:11;;;;;;;2.60;2.00;;;21.10;26.00;;;;;;5031578;28;20383;-59
2021/01/12 12:00:38;;;;;;;4.20;2.00;;;21.00;26.00;;;;;;5031064;28;20810;-59
2021/01/12 12:03:04;;;;;;;2.78;2.00;;;21.10;26.10;;;;;;5031583;28;20733;-59
2021/01/12 12:05:30;;;;;;;2.43;2.00;;;21.10;26.10;;;;;;5031460;28;20386;-58
2021/01/12 12:07:56;;;;;;;3.35;1.90;;;21.10;26.10;;;;;;5031684;28;20387;-59
2021/01/12 12:10:21;;;;;;;3.10;1.90;;;21.10;26.10;;;;;;5031831;28;20383;-78
2021/01/12 12:12:47;;;;;;;2.40;1.90;;;21.10;26.10;;;;;;5030965;28;20481;-58
2021/01/12 12:15:13;;;;;;;2.80;1.90;;;21.10;26.10;;;;;;5031461;28;20419;-58
2021/01/12 12:17:39;;;;;;;2.95;1.90;;;21.10;26.10;;;;;;5031306;28;20395;-58
2021/01/12 12:20:05;;;;;;;3.28;1.70;;;21.10;26.00;;;;;;5031364;28;20379;-58
2021/01/12 12:22:31;;;;;;;3.00;1.88;;;21.10;26.00;;;;;;5030698;28;20950;-58
2021/01/12 12:24:56;;;;;;;3.13;2.10;;;21.10;26.00;;;;;;5031211;28;20422;-58
2021/01/12 12:27:23;;;;;;;2.85;2.10;;;21.10;26.10;;;;;;5031399;28;20494;-58
2021/01/12 12:29:48;;;;;;;2.70;2.00;;;21.10;26.10;;;;;;5031245;28;20926;-58
2021/01/12 12:32:14;;;;;;;2.90;1.90;;;21.10;26.10;;;;;;5029661;28;20391;-58
2021/01/12 12:34:40;;;;;;;3.50;1.90;;;21.00;26.00;;;;;;5029484;28;20411;-58
2021/01/12 12:37:09;;;;;;;3.42;1.85;;;21.00;26.10;;;;;;5031426;28;20387;-58
2021/01/12 12:39:36;;;;;;;2.38;1.73;;;21.00;26.10;;;;;;5029794;28;20974;-58
2021/01/12 12:42:02;;;;;;;2.80;2.00;;;21.00;26.10;;;;;;5030558;28;20505;-58
2021/01/12 12:44:28;;;;;;;2.50;1.83;;;21.00;26.10;;;;;;5049337;28;20490;-58
2021/01/12 12:46:53;;;;;;;2.67;1.70;;;21.00;26.10;;;;;;5050300;28;20386;-58
2021/01/12 12:49:19;;;;;;;2.40;1.73;;;21.00;26.10;;;;;;5035031;28;20379;-58
2021/01/12 12:51:48;;;;;;;2.80;1.83;;;21.00;26.10;;;;;;5034979;28;20436;-58